Time;durP1;ratioP1;P1;durP2;ratioP2;P2;SDS_P1;SDS_P2;PMS_P1;PMS_P2;Temp;Humidity;BMP_temperature;BMP_pressure;BME280_temperature;BME280_humidity;BME280_pressure;Samples;Min_cycle;Max_cycle;Signal;HPM_P1;HPM_P2
2021/11/04 00:00:18;;;;;;;60.50;27.60;;;7.30;99.90;;;;;;5092916;28;20165;-66
2021/11/04 00:02:44;;;;;;;50.60;24.73;;;7.30;99.90;;;;;;5087467;28;20198;-67
2021/11/04 00:05:11;;;;;;;44.37;25.57;;;7.30;99.90;;;;;;5072854;28;20182;-68
2021/11/04 00:07:38;;;;;;;49.63;26.97;;;7.30;99.90;;;;;;5091875;28;20199;-67
2021/11/04 00:10:06;;;;;;;45.63;25.50;;;7.30;99.90;;;;;;5077778;28;20178;-68
2021/11/04 00:12:32;;;;;;;44.87;25.00;;;7.20;99.90;;;;;;5072281;28;20284;-67
2021/11/04 00:14:57;;;;;;;47.43;24.63;;;7.20;99.90;;;;;;5085003;28;20273;-67
2021/11/04 00:17:23;;;;;;;52.47;26.30;;;7.20;99.90;;;;;;5092608;28;20193;-66
2021/11/04 00:19:49;;;;;;;51.10;24.20;;;7.20;99.90;;;;;;5080724;28;20185;-68
2021/11/04 00:22:15;;;;;;;46.03;25.73;;;7.20;99.90;;;;;;5072531;28;20236;-67
2021/11/04 00:24:40;;;;;;;52.17;26.07;;;7.30;99.90;;;;;;5081305;28;20550;-67
2021/11/04 00:27:06;;;;;;;49.80;26.67;;;7.20;99.90;;;;;;5092486;28;20169;-67
2021/11/04 00:29:32;;;;;;;56.27;27.17;;;7.30;99.90;;;;;;5084230;28;20648;-67
2021/11/04 00:31:59;;;;;;;50.17;25.67;;;7.30;99.90;;;;;;5071814;28;20214;-67
2021/11/04 00:34:25;;;;;;;53.30;27.60;;;7.20;99.90;;;;;;5077712;28;20264;-67
2021/11/04 00:36:51;;;;;;;46.13;24.07;;;7.20;99.90;;;;;;5078509;28;20327;-67
2021/11/04 00:39:17;;;;;;;53.83;26.20;;;7.30;99.90;;;;;;5075993;28;20530;-67
2021/11/04 00:41:43;;;;;;;54.77;26.17;;;7.30;99.90;;;;;;5092039;28;20168;-67
2021/11/04 00:44:09;;;;;;;47.90;24.97;;;7.20;99.90;;;;;;5090495;28;20686;-66
2021/11/04 00:46:35;;;;;;;50.03;26.07;;;7.20;99.90;;;;;;5092467;28;20172;-67
2021/11/04 00:49:00;;;;;;;44.30;24.27;;;7.20;99.90;;;;;;5088550;28;20170;-66
2021/11/04 00:51:27;;;;;;;42.47;23.80;;;7.30;99.90;;;;;;5071912;28;20245;-66
2021/11/04 00:53:53;;;;;;;51.77;26.80;;;7.30;99.90;;;;;;5072491;28;20675;-67
2021/11/04 00:56:19;;;;;;;41.97;23.30;;;7.30;99.90;;;;;;5092069;28;20549;-66
2021/11/04 00:58:49;;;;;;;42.07;25.40;;;7.30;99.90;;;;;;5091748;28;20252;-66
2021/11/04 01:01:18;;;;;;;48.67;25.43;;;7.30;99.90;;;;;;5085943;28;20557;-67
2021/11/04 01:03:44;;;;;;;44.27;24.37;;;7.30;99.90;;;;;;5075951;28;20239;-66
2021/11/04 01:06:10;;;;;;;47.50;24.57;;;7.20;99.90;;;;;;5071721;28;20590;-66
2021/11/04 01:08:36;;;;;;;48.93;24.47;;;7.20;99.90;;;;;;5083882;28;20219;-67
2021/11/04 01:11:01;;;;;;;44.47;22.37;;;7.20;99.90;;;;;;5091394;28;20181;-67
2021/11/04 01:13:27;;;;;;;45.67;24.57;;;7.30;99.90;;;;;;5079075;28;20289;-66
2021/11/04 01:15:52;;;;;;;54.83;25.33;;;7.30;99.90;;;;;;5071472;28;20173;-66
2021/11/04 01:18:18;;;;;;;40.80;25.37;;;7.30;99.90;;;;;;5072587;28;20543;-67
2021/11/04 01:20:44;;;;;;;45.60;25.60;;;7.30;99.90;;;;;;5070896;28;20200;-66
2021/11/04 01:23:09;;;;;;;42.20;24.27;;;7.30;99.90;;;;;;5087243;28;20201;-66
2021/11/04 01:25:35;;;;;;;38.20;22.07;;;7.30;99.90;;;;;;5090409;28;20173;-66
2021/11/04 01:28:03;;;;;;;46.63;22.27;;;7.30;99.90;;;;;;5077305;28;20170;-66
2021/11/04 01:30:29;;;;;;;41.67;22.13;;;7.30;99.90;;;;;;5071199;28;20185;-66
2021/11/04 01:32:54;;;;;;;42.57;23.00;;;7.30;99.90;;;;;;5083727;28;21121;-67
2021/11/04 01:35:20;;;;;;;37.43;22.93;;;7.20;99.90;;;;;;5089765;28;20224;-66
2021/11/04 01:37:46;;;;;;;48.60;23.63;;;7.20;99.90;;;;;;5080133;28;20175;-66
2021/11/04 01:40:11;;;;;;;44.10;24.23;;;7.20;99.90;;;;;;5071026;28;20173;-66
2021/11/04 01:42:37;;;;;;;40.63;21.53;;;7.20;99.90;;;;;;5080275;28;20197;-65
2021/11/04 01:45:03;;;;;;;43.43;22.90;;;7.20;99.90;;;;;;5091281;28;20587;-66
2021/11/04 01:47:29;;;;;;;46.90;24.17;;;7.20;99.90;;;;;;5086802;28;20170;-66
2021/11/04 01:49:54;;;;;;;40.13;22.90;;;7.20;99.90;;;;;;5076116;28;20188;-66
2021/11/04 01:52:22;;;;;;;49.33;24.53;;;7.20;99.90;;;;;;5074956;28;20284;-66
2021/11/04 01:54:47;;;;;;;36.40;22.57;;;7.10;99.90;;;;;;5079573;28;20186;-65
2021/11/04 01:57:13;;;;;;;42.93;24.77;;;7.20;99.90;;;;;;5095307;28;20558;-66
2021/11/04 01:59:39;;;;;;;45.30;23.43;;;7.20;99.90;;;;;;5091594;28;20686;-66
2021/11/04 02:02:16;;;;;;;43.47;24.60;;;7.20;99.90;;;;;;5081775;28;20209;-66
2021/11/04 02:04:55;;;;;;;45.00;23.70;;;7.10;99.90;;;;;;5093406;28;20192;-66
2021/11/04 02:07:33;;;;;;;44.50;24.70;;;7.00;99.90;;;;;;5069942;28;20181;-66
2021/11/04 02:10:28;;;;;;;47.43;26.00;;;7.00;99.90;;;;;;5094091;28;20177;-66
2021/11/04 02:13:15;;;;;;;47.70;23.90;;;7.00;99.90;;;;;;5074340;28;20232;-66
2021/11/04 02:15:42;;;;;;;46.13;23.60;;;6.90;99.90;;;;;;5078727;28;20170;-66
2021/11/04 02:18:10;;;;;;;49.70;23.63;;;6.90;99.90;;;;;;5074682;28;20261;-66
2021/11/04 02:21:07;;;;;;;48.00;25.27;;;7.00;99.90;;;;;;5082757;28;20204;-66
2021/11/04 02:23:41;;;;;;;42.63;22.50;;;7.00;99.90;;;;;;5054521;28;20303;-66
2021/11/04 02:26:08;;;;;;;45.77;23.97;;;6.90;99.90;;;;;;5094824;28;20226;-66
2021/11/04 02:28:38;;;;;;;41.13;22.70;;;6.80;99.90;;;;;;5082908;28;20204;-67
2021/11/04 02:31:06;;;;;;;43.07;24.87;;;6.80;99.90;;;;;;5073214;28;20710;-66
2021/11/04 02:33:32;;;;;;;44.00;23.47;;;6.70;99.90;;;;;;5083440;28;20205;-66
2021/11/04 02:35:58;;;;;;;48.00;21.17;;;6.70;99.90;;;;;;5094588;28;20165;-66
2021/11/04 02:38:28;;;;;;;47.33;22.93;;;6.70;99.90;;;;;;5085052;28;20182;-66
2021/11/04 02:40:54;;;;;;;38.53;22.50;;;6.70;99.90;;;;;;5074789;28;20274;-66
2021/11/04 02:43:21;;;;;;;42.27;22.53;;;6.70;99.90;;;;;;5081734;28;20731;-66
2021/11/04 02:45:48;;;;;;;43.73;23.40;;;6.70;99.90;;;;;;5094599;28;20545;-66
2021/11/04 02:48:17;;;;;;;43.20;22.90;;;6.80;99.90;;;;;;5087718;28;20186;-65
2021/11/04 02:50:46;;;;;;;46.77;23.27;;;6.80;99.90;;;;;;5073632;28;20170;-66
2021/11/04 02:53:21;;;;;;;45.67;22.40;;;6.70;99.90;;;;;;5079172;28;20215;-66
2021/11/04 02:55:48;;;;;;;55.37;24.33;;;6.70;99.90;;;;;;5092862;28;20177;-66
2021/11/04 02:58:14;;;;;;;54.83;24.63;;;6.70;99.90;;;;;;5086590;28;20194;-66
2021/11/04 03:00:44;;;;;;;56.50;28.03;;;6.70;99.90;;;;;;5073599;28;20256;-66
2021/11/04 03:03:09;;;;;;;47.80;22.33;;;6.70;99.90;;;;;;5084119;28;20205;-65
2021/11/04 03:05:35;;;;;;;50.83;25.33;;;6.70;99.90;;;;;;5092977;28;20173;-66
2021/11/04 03:08:01;;;;;;;53.67;23.77;;;6.80;99.90;;;;;;5085151;28;20174;-66
2021/11/04 03:10:27;;;;;;;47.97;26.20;;;6.80;99.90;;;;;;5073586;28;20232;-72
2021/11/04 03:12:53;;;;;;;50.53;25.03;;;6.70;99.90;;;;;;5081403;28;20704;-70
2021/11/04 03:15:21;;;;;;;59.90;26.20;;;6.80;99.90;;;;;;5092135;28;20212;-72
2021/11/04 03:17:48;;;;;;;51.37;25.60;;;6.80;99.90;;;;;;5089305;28;20233;-70
2021/11/04 03:20:18;;;;;;;64.63;27.27;;;6.80;99.90;;;;;;5073625;28;20171;-65
2021/11/04 03:22:45;;;;;;;59.27;25.93;;;6.80;99.90;;;;;;5077435;28;20201;-65
2021/11/04 03:25:14;;;;;;;51.87;24.47;;;6.80;99.90;;;;;;5092454;28;20703;-66
2021/11/04 03:27:42;;;;;;;48.40;23.80;;;6.80;99.90;;;;;;5089687;28;20178;-64
2021/11/04 03:30:11;;;;;;;52.37;25.60;;;6.80;99.90;;;;;;5088328;28;20180;-65
2021/11/04 03:32:38;;;;;;;61.00;27.07;;;6.70;99.90;;;;;;5090027;28;20304;-65
2021/11/04 03:35:06;;;;;;;50.33;25.03;;;6.70;99.90;;;;;;5093282;28;20741;-66
2021/11/04 03:37:34;;;;;;;55.97;25.60;;;6.60;99.90;;;;;;5078299;28;20177;-65
2021/11/04 03:40:00;;;;;;;56.50;25.73;;;6.60;99.90;;;;;;5072828;28;20222;-65
2021/11/04 03:42:26;;;;;;;46.10;24.50;;;6.60;99.90;;;;;;5073013;28;20198;-66
2021/11/04 03:44:53;;;;;;;50.53;23.97;;;6.50;99.90;;;;;;5073616;28;20224;-66
2021/11/04 03:47:20;;;;;;;60.50;27.47;;;6.40;99.90;;;;;;5072999;28;20201;-66
2021/11/04 03:49:49;;;;;;;43.07;21.87;;;6.40;99.90;;;;;;5075865;28;20178;-65
2021/11/04 03:52:15;;;;;;;44.23;22.27;;;6.40;99.90;;;;;;5092172;28;20257;-66
2021/11/04 03:54:41;;;;;;;52.67;26.43;;;6.40;99.90;;;;;;5079592;28;20186;-65
2021/11/04 03:57:07;;;;;;;50.40;22.83;;;6.50;99.90;;;;;;5072928;28;20173;-65
2021/11/04 03:59:32;;;;;;;50.30;25.43;;;6.50;99.90;;;;;;5081925;28;20212;-66
2021/11/04 04:01:59;;;;;;;39.63;20.23;;;6.40;99.90;;;;;;5072580;28;20209;-65
2021/11/04 04:04:24;;;;;;;53.10;23.13;;;6.40;99.90;;;;;;5082406;28;20181;-65
2021/11/04 04:06:55;;;;;;;56.93;24.03;;;6.40;99.90;;;;;;5090972;28;20208;-65
2021/11/04 04:09:22;;;;;;;63.73;27.90;;;6.50;99.90;;;;;;5073783;28;20182;-65
2021/11/04 04:11:49;;;;;;;51.37;25.57;;;6.50;99.90;;;;;;5072321;28;20180;-65
2021/11/04 04:14:14;;;;;;;52.43;24.73;;;6.50;99.90;;;;;;5088322;28;20173;-65
2021/11/04 04:16:40;;;;;;;63.70;26.60;;;6.50;99.90;;;;;;5091321;28;20219;-66
2021/11/04 04:19:06;;;;;;;55.30;25.47;;;6.60;99.90;;;;;;5077711;28;20188;-65
2021/11/04 04:21:32;;;;;;;56.80;24.97;;;6.60;99.90;;;;;;5072488;28;20632;-64
2021/11/04 04:23:57;;;;;;;50.20;26.13;;;6.70;99.90;;;;;;5084504;28;20238;-65
2021/11/04 04:26:23;;;;;;;56.63;24.83;;;6.70;99.90;;;;;;5092564;28;20514;-65
2021/11/04 04:28:49;;;;;;;43.27;23.73;;;6.80;99.90;;;;;;5081536;28;20186;-65
2021/11/04 04:31:15;;;;;;;54.37;25.17;;;6.90;99.90;;;;;;5072154;28;20202;-65
2021/11/04 04:33:40;;;;;;;54.40;23.70;;;6.90;99.90;;;;;;5080595;28;20201;-65
2021/11/04 04:36:06;;;;;;;54.90;25.80;;;6.90;99.90;;;;;;5092346;28;20182;-66
2021/11/04 04:38:32;;;;;;;52.30;24.73;;;6.80;99.90;;;;;;5084840;28;20167;-64
2021/11/04 04:40:58;;;;;;;59.80;23.80;;;6.90;99.90;;;;;;5071568;28;20173;-66
2021/11/04 04:43:23;;;;;;;58.27;26.03;;;6.90;99.90;;;;;;5087174;28;20208;-65
2021/11/04 04:45:49;;;;;;;54.93;25.03;;;6.90;99.90;;;;;;5092213;28;20181;-65
2021/11/04 04:48:15;;;;;;;57.60;25.37;;;7.00;99.90;;;;;;5077263;28;20654;-65
2021/11/04 04:50:41;;;;;;;60.50;24.37;;;6.90;99.90;;;;;;5071596;28;20178;-65
2021/11/04 04:53:08;;;;;;;52.80;23.23;;;7.00;99.90;;;;;;5083408;28;20266;-65
2021/11/04 04:55:34;;;;;;;53.27;22.37;;;6.90;99.90;;;;;;5090257;28;20179;-66
2021/11/04 04:58:00;;;;;;;44.70;24.50;;;6.90;99.90;;;;;;5091359;28;20243;-65
2021/11/04 05:00:25;;;;;;;48.17;23.53;;;6.90;99.90;;;;;;5089302;28;20175;-65
2021/11/04 05:02:52;;;;;;;58.77;25.37;;;6.90;99.90;;;;;;5071642;28;20216;-65
2021/11/04 05:05:18;;;;;;;53.57;24.60;;;7.00;99.90;;;;;;5071923;28;20174;-66
2021/11/04 05:07:44;;;;;;;61.97;26.10;;;6.90;99.90;;;;;;5091905;28;20539;-65
2021/11/04 05:10:11;;;;;;;53.70;23.40;;;6.90;99.90;;;;;;5091678;28;20173;-66
2021/11/04 05:12:36;;;;;;;57.77;24.60;;;6.90;99.90;;;;;;5072377;28;20209;-66
2021/11/04 05:15:04;;;;;;;58.07;24.57;;;6.80;99.90;;;;;;5070378;28;20715;-66
2021/11/04 05:17:30;;;;;;;50.33;23.73;;;6.80;99.90;;;;;;5088834;28;20189;-65
2021/11/04 05:19:56;;;;;;;64.63;25.27;;;6.80;99.90;;;;;;5091083;28;20173;-66
2021/11/04 05:22:21;;;;;;;46.07;23.13;;;6.80;99.90;;;;;;5075818;28;20210;-66
2021/11/04 05:24:47;;;;;;;56.27;25.00;;;6.70;99.90;;;;;;5073422;28;20665;-65
2021/11/04 05:27:12;;;;;;;44.17;20.40;;;6.70;99.90;;;;;;5084934;28;20192;-65
2021/11/04 05:29:38;;;;;;;51.90;24.57;;;6.70;99.90;;;;;;5091345;28;20651;-66
2021/11/04 05:32:07;;;;;;;55.70;26.20;;;6.60;99.90;;;;;;5079394;28;20224;-65
2021/11/04 05:34:42;;;;;;;54.83;23.03;;;6.70;99.90;;;;;;5070065;28;20189;-66
2021/11/04 05:37:08;;;;;;;50.40;24.70;;;6.70;99.90;;;;;;5082631;28;20211;-66
2021/11/04 05:39:38;;;;;;;60.40;24.53;;;6.60;99.90;;;;;;5091325;28;20176;-65
2021/11/04 05:42:08;;;;;;;56.60;23.37;;;6.60;99.90;;;;;;5080729;28;20298;-65
2021/11/04 05:44:35;;;;;;;65.97;25.37;;;6.60;99.90;;;;;;5072277;28;20185;-65
2021/11/04 05:47:02;;;;;;;62.17;25.33;;;6.60;99.90;;;;;;5080157;28;20181;-65
2021/11/04 05:49:28;;;;;;;58.77;24.80;;;6.70;99.90;;;;;;5089887;28;20185;-65
2021/11/04 05:51:54;;;;;;;51.73;23.10;;;6.70;99.90;;;;;;5083108;28;20233;-65
2021/11/04 05:54:19;;;;;;;62.63;22.63;;;6.70;99.90;;;;;;5071287;28;20173;-66
2021/11/04 05:56:45;;;;;;;54.57;24.00;;;6.60;99.90;;;;;;5076855;28;20184;-64
2021/11/04 05:59:11;;;;;;;61.73;25.93;;;6.60;99.90;;;;;;5090993;28;20178;-66
2021/11/04 06:01:37;;;;;;;52.30;23.70;;;6.60;99.90;;;;;;5089335;28;20544;-65
2021/11/04 06:04:03;;;;;;;57.57;24.10;;;6.50;99.90;;;;;;5091272;28;20173;-65
2021/11/04 06:06:29;;;;;;;59.33;23.50;;;6.40;99.90;;;;;;5089493;28;20666;-66
2021/11/04 06:08:55;;;;;;;45.33;22.73;;;6.40;99.90;;;;;;5090874;28;20178;-65
2021/11/04 06:11:20;;;;;;;54.17;23.53;;;6.40;99.90;;;;;;5083840;28;20193;-65
2021/11/04 06:13:46;;;;;;;53.90;25.50;;;6.50;99.90;;;;;;5070748;28;20619;-65
2021/11/04 06:16:14;;;;;;;48.07;23.63;;;6.40;99.90;;;;;;5075881;28;20253;-65
2021/11/04 06:18:41;;;;;;;58.33;26.40;;;6.40;99.90;;;;;;5089282;28;20204;-66
2021/11/04 06:21:07;;;;;;;60.97;23.37;;;6.40;99.90;;;;;;5091015;28;20739;-65
2021/11/04 06:23:32;;;;;;;63.23;23.47;;;6.40;99.90;;;;;;5089552;28;20216;-65
2021/11/04 06:25:58;;;;;;;50.37;21.83;;;6.40;99.90;;;;;;5070982;28;20182;-65
2021/11/04 06:28:24;;;;;;;65.30;26.63;;;6.40;99.90;;;;;;5070848;28;20201;-66
2021/11/04 06:30:49;;;;;;;55.73;24.60;;;6.40;99.90;;;;;;5079297;28;20181;-65
2021/11/04 06:33:15;;;;;;;52.87;22.83;;;6.40;99.90;;;;;;5073138;28;20291;-64
2021/11/04 06:35:40;;;;;;;39.97;20.33;;;6.30;99.90;;;;;;5090596;28;20475;-65
2021/11/04 06:38:06;;;;;;;46.27;24.73;;;6.30;99.90;;;;;;5094381;28;20181;-66
2021/11/04 06:40:32;;;;;;;53.37;24.13;;;6.30;99.90;;;;;;5078491;28;20176;-65
2021/11/04 06:42:57;;;;;;;58.13;23.90;;;6.30;99.90;;;;;;5074070;28;20251;-65
2021/11/04 06:45:23;;;;;;;52.37;24.37;;;6.40;99.90;;;;;;5087961;28;20182;-65
2021/11/04 06:47:51;;;;;;;50.17;25.03;;;6.40;99.90;;;;;;5094360;28;20177;-65
2021/11/04 06:50:25;;;;;;;46.57;24.67;;;6.40;99.90;;;;;;5089090;28;20177;-65
2021/11/04 06:53:10;;;;;;;53.93;25.27;;;6.40;99.90;;;;;;5094084;28;20231;-65
2021/11/04 06:55:43;;;;;;;55.43;25.87;;;6.50;99.90;;;;;;5092541;28;20248;-66
2021/11/04 06:58:14;;;;;;;61.40;25.93;;;6.50;99.90;;;;;;5094349;28;20158;-66
2021/11/04 07:00:45;;;;;;;50.70;22.07;;;6.40;99.90;;;;;;5075422;28;20178;-66
2021/11/04 07:03:27;;;;;;;61.30;26.80;;;6.30;99.90;;;;;;5073913;28;20222;-65
2021/11/04 07:06:30;;;;;;;70.80;28.33;;;6.40;99.90;;;;;;5092908;28;20177;-66
2021/11/04 07:08:54;;;;;;;55.07;26.10;;;6.40;99.90;;;;;;5088616;28;20190;-65
2021/11/04 07:11:20;;;;;;;61.40;26.10;;;6.40;99.90;;;;;;5065943;28;20261;-65
2021/11/04 07:13:48;;;;;;;54.97;25.07;;;6.40;99.90;;;;;;5072030;28;20205;-66
2021/11/04 07:16:15;;;;;;;50.53;24.47;;;6.40;99.90;;;;;;5093563;28;20158;-66
2021/11/04 07:18:40;;;;;;;50.93;25.43;;;6.30;99.90;;;;;;5091047;28;20174;-65
2021/11/04 07:21:28;;;;;;;59.33;25.30;;;6.30;99.90;;;;;;5090530;28;20176;-65
2021/11/04 07:24:07;;;;;;;56.23;25.53;;;6.30;99.90;;;;;;5088542;28;20226;-66
2021/11/04 07:26:41;;;;;;;50.10;22.77;;;6.30;99.90;;;;;;5073347;28;20170;-66
2021/11/04 07:29:09;;;;;;;56.63;26.47;;;6.30;99.90;;;;;;5078511;28;20174;-66
2021/11/04 07:31:37;;;;;;;59.13;26.97;;;6.40;99.90;;;;;;5078129;28;20232;-66
2021/11/04 07:34:05;;;;;;;55.93;26.27;;;6.40;99.90;;;;;;5087462;28;20204;-65
2021/11/04 07:36:38;;;;;;;55.83;26.87;;;6.40;99.90;;;;;;5092120;28;20180;-65
2021/11/04 07:39:06;;;;;;;60.10;27.87;;;6.40;99.90;;;;;;5078627;28;20644;-66
2021/11/04 07:41:33;;;;;;;58.00;25.10;;;6.40;99.90;;;;;;5072852;28;20200;-66
2021/11/04 07:44:00;;;;;;;54.10;25.70;;;6.40;99.90;;;;;;5081223;28;20215;-65
2021/11/04 07:46:26;;;;;;;49.37;23.80;;;6.50;99.90;;;;;;5076172;28;20175;-65
2021/11/04 07:48:53;;;;;;;44.97;25.00;;;6.50;99.90;;;;;;5072489;28;20580;-66
2021/11/04 07:51:20;;;;;;;46.43;24.17;;;6.50;99.90;;;;;;5078911;28;20648;-65
2021/11/04 07:53:45;;;;;;;48.37;24.93;;;6.50;99.90;;;;;;5087908;28;20254;-65
2021/11/04 07:56:11;;;;;;;48.37;23.93;;;6.50;99.90;;;;;;5084474;28;20182;-64
2021/11/04 07:58:37;;;;;;;48.50;23.77;;;6.50;99.90;;;;;;5072658;28;20253;-65
2021/11/04 08:01:04;;;;;;;38.80;21.80;;;6.50;99.90;;;;;;5072205;28;20297;-65
2021/11/04 08:03:29;;;;;;;47.63;25.87;;;6.40;99.90;;;;;;5072527;28;20202;-66
2021/11/04 08:05:55;;;;;;;47.10;22.90;;;6.40;99.90;;;;;;5085776;28;20212;-65
2021/11/04 08:08:21;;;;;;;48.67;23.40;;;6.40;99.90;;;;;;5078956;28;20240;-66
2021/11/04 08:10:47;;;;;;;49.63;25.37;;;6.40;99.90;;;;;;5083300;28;20186;-65
2021/11/04 08:13:13;;;;;;;45.97;23.30;;;6.60;99.90;;;;;;5092344;28;20213;-66
2021/11/04 08:15:40;;;;;;;46.80;25.17;;;6.70;99.90;;;;;;5082312;28;20219;-66
2021/11/04 08:18:09;;;;;;;44.90;23.53;;;6.70;99.90;;;;;;5072328;28;20166;-65
2021/11/04 08:20:34;;;;;;;53.00;25.00;;;6.80;99.90;;;;;;5072931;28;20189;-65
2021/11/04 08:23:02;;;;;;;47.87;23.07;;;6.90;99.90;;;;;;5071858;28;20228;-66
2021/11/04 08:25:28;;;;;;;36.77;21.30;;;6.80;99.90;;;;;;5080774;28;20648;-66
2021/11/04 08:27:54;;;;;;;44.63;22.60;;;6.80;99.90;;;;;;5090673;28;20221;-65
2021/11/04 08:30:21;;;;;;;40.47;21.17;;;6.80;99.90;;;;;;5084821;28;20651;-66
2021/11/04 08:32:48;;;;;;;40.83;24.20;;;6.90;99.90;;;;;;5071504;28;20332;-66
2021/11/04 08:35:13;;;;;;;51.20;22.57;;;7.00;99.90;;;;;;5077136;28;20166;-65
2021/11/04 08:37:40;;;;;;;36.07;21.67;;;7.20;99.90;;;;;;5079079;28;20175;-66
2021/11/04 08:40:07;;;;;;;39.03;19.80;;;7.20;99.90;;;;;;5059010;28;20253;-66
2021/11/04 08:42:32;;;;;;;41.67;21.07;;;7.10;99.90;;;;;;5092006;28;20246;-65
2021/11/04 08:44:59;;;;;;;40.43;20.33;;;7.20;99.90;;;;;;5089718;28;20178;-66
2021/11/04 08:47:26;;;;;;;35.83;21.90;;;7.20;99.90;;;;;;5071610;28;20174;-65
2021/11/04 08:49:53;;;;;;;42.47;21.70;;;7.40;99.90;;;;;;5088059;28;20185;-66
2021/11/04 08:52:22;;;;;;;45.43;21.67;;;7.30;99.90;;;;;;5084732;28;20210;-65
2021/11/04 08:54:47;;;;;;;40.43;21.77;;;7.40;99.90;;;;;;5071069;28;20204;-65
2021/11/04 08:57:15;;;;;;;39.80;21.87;;;7.60;99.90;;;;;;5076423;28;20527;-65
2021/11/04 08:59:42;;;;;;;39.53;21.23;;;7.70;99.90;;;;;;5090019;28;20210;-65
2021/11/04 09:02:11;;;;;;;39.73;22.47;;;7.90;99.90;;;;;;5087696;28;20283;-65
2021/11/04 09:04:41;;;;;;;41.50;21.90;;;8.00;99.90;;;;;;5071376;28;20174;-65
2021/11/04 09:07:07;;;;;;;31.10;19.73;;;7.90;99.90;;;;;;5074150;28;20181;-64
2021/11/04 09:09:33;;;;;;;33.43;19.90;;;7.90;99.90;;;;;;5091108;28;20185;-66
2021/11/04 09:11:59;;;;;;;35.47;21.03;;;7.90;99.90;;;;;;5053077;28;20216;-65
2021/11/04 09:14:25;;;;;;;37.80;20.80;;;7.90;99.90;;;;;;5071285;28;20174;-65
2021/11/04 09:16:50;;;;;;;39.17;21.03;;;7.90;99.90;;;;;;5077659;28;20177;-65
2021/11/04 09:19:16;;;;;;;39.47;22.03;;;8.00;99.90;;;;;;5076452;28;20193;-65
2021/11/04 09:21:42;;;;;;;42.67;26.23;;;8.10;99.90;;;;;;5061036;28;20201;-66
2021/11/04 09:24:08;;;;;;;34.47;19.63;;;8.20;99.90;;;;;;5091569;28;20277;-66
2021/11/04 09:26:38;;;;;;;33.00;19.90;;;8.40;99.90;;;;;;5089699;28;20178;-66
2021/11/04 09:29:05;;;;;;;37.20;20.47;;;8.60;99.90;;;;;;5090881;28;20185;-65
2021/11/04 09:31:31;;;;;;;32.53;21.33;;;8.80;99.90;;;;;;5089155;28;20609;-66
2021/11/04 09:33:58;;;;;;;34.50;19.83;;;8.90;99.90;;;;;;5071234;28;20696;-66
2021/11/04 09:36:28;;;;;;;30.83;18.93;;;8.90;99.90;;;;;;5071360;28;20281;-65
2021/11/04 09:38:54;;;;;;;28.27;20.60;;;8.80;99.90;;;;;;5071576;28;20182;-66
2021/11/04 09:41:20;;;;;;;30.93;20.40;;;8.80;99.90;;;;;;5071074;28;20440;-66
2021/11/04 09:43:47;;;;;;;27.57;18.53;;;8.90;99.90;;;;;;5074527;28;20276;-66
2021/11/04 09:46:12;;;;;;;31.63;19.70;;;9.00;99.90;;;;;;5071620;28;20217;-66
2021/11/04 09:48:38;;;;;;;26.73;18.47;;;9.20;99.90;;;;;;5070813;28;20205;-64
2021/11/04 09:51:05;;;;;;;29.03;19.33;;;9.30;99.90;;;;;;5082537;28;20185;-66
2021/11/04 09:53:32;;;;;;;26.73;18.53;;;9.40;99.90;;;;;;5113271;22;20227;-66
2021/11/04 09:55:59;;;;;;;32.27;18.90;;;9.40;99.90;;;;;;5062567;28;20189;-66
2021/11/04 09:58:25;;;;;;;29.33;19.80;;;9.40;99.90;;;;;;5069929;28;20197;-65
2021/11/04 10:00:50;;;;;;;27.50;18.97;;;9.30;99.90;;;;;;5060076;28;20167;-66
2021/11/04 10:03:16;;;;;;;31.63;18.23;;;9.30;99.90;;;;;;5050817;28;20199;-65
2021/11/04 10:05:53;;;;;;;29.53;17.90;;;9.30;99.90;;;;;;5050482;28;20185;-65
2021/11/04 10:08:39;;;;;;;30.07;20.07;;;9.30;99.90;;;;;;5053302;28;20185;-65
2021/11/04 10:11:10;;;;;;;29.90;19.77;;;9.50;99.90;;;;;;5053089;28;20210;-66
2021/11/04 10:13:36;;;;;;;28.83;18.33;;;9.60;99.90;;;;;;5054278;28;20257;-66
2021/11/04 10:16:03;;;;;;;30.33;18.83;;;9.70;99.90;;;;;;5053017;28;20159;-66
2021/11/04 10:18:41;;;;;;;33.60;18.87;;;9.80;99.90;;;;;;5054403;28;20647;-65
2021/11/04 10:21:07;;;;;;;29.80;18.53;;;9.80;99.90;;;;;;5052917;28;20177;-65
2021/11/04 10:23:42;;;;;;;30.93;19.30;;;9.80;99.90;;;;;;5054457;28;20191;-65
2021/11/04 10:26:14;;;;;;;31.90;19.83;;;9.90;99.90;;;;;;5053639;28;20167;-66
2021/11/04 10:28:42;;;;;;;28.17;18.90;;;9.90;99.90;;;;;;5054522;28;20206;-66
2021/11/04 10:31:16;;;;;;;27.77;17.67;;;10.00;99.90;;;;;;5054008;28;20217;-66
2021/11/04 10:33:47;;;;;;;32.83;19.37;;;10.20;99.90;;;;;;5054299;28;20213;-66
2021/11/04 10:36:14;;;;;;;32.00;20.17;;;10.40;99.90;;;;;;5054364;28;20602;-65
2021/11/04 10:38:46;;;;;;;30.27;18.40;;;10.30;99.90;;;;;;5054260;28;20163;-66
2021/11/04 10:41:20;;;;;;;29.47;18.67;;;10.10;99.90;;;;;;5053839;28;20718;-66
2021/11/04 10:43:47;;;;;;;30.37;18.70;;;10.00;99.90;;;;;;5054162;28;20308;-66
2021/11/04 10:46:13;;;;;;;31.17;20.43;;;9.90;99.90;;;;;;5054121;28;20668;-66
2021/11/04 10:48:41;;;;;;;35.30;19.53;;;10.10;99.90;;;;;;5054170;28;20170;-65
2021/11/04 10:51:11;;;;;;;30.70;19.20;;;10.30;99.90;;;;;;5053557;28;20594;-65
2021/11/04 10:53:37;;;;;;;29.37;18.57;;;10.70;99.90;;;;;;5053648;28;20707;-66
2021/11/04 10:56:15;;;;;;;31.37;18.73;;;10.80;99.90;;;;;;5053815;28;20159;-65
2021/11/04 10:58:41;;;;;;;25.43;17.87;;;10.80;99.90;;;;;;5053946;28;20179;-65
2021/11/04 11:01:22;;;;;;;25.17;18.70;;;10.80;99.90;;;;;;5052152;28;20197;-65
2021/11/04 11:03:53;;;;;;;27.87;18.00;;;10.80;99.90;;;;;;5053751;28;20187;-66
2021/11/04 11:06:18;;;;;;;30.17;19.47;;;10.70;99.90;;;;;;5052492;28;20202;-65
2021/11/04 11:08:44;;;;;;;28.07;18.73;;;10.50;99.90;;;;;;5053636;28;20569;-65
2021/11/04 11:11:11;;;;;;;28.57;19.13;;;10.40;99.90;;;;;;5053196;28;20224;-65
2021/11/04 11:13:36;;;;;;;29.63;20.20;;;10.40;99.90;;;;;;5053533;28;20209;-65
2021/11/04 11:16:04;;;;;;;24.17;17.57;;;10.40;99.90;;;;;;5053708;28;20503;-65
2021/11/04 11:18:30;;;;;;;32.00;19.57;;;10.40;99.90;;;;;;5053155;28;20583;-66
2021/11/04 11:20:57;;;;;;;31.53;19.87;;;10.40;99.90;;;;;;5051911;28;20179;-65
2021/11/04 11:23:25;;;;;;;29.23;20.50;;;10.30;99.90;;;;;;5052978;28;20217;-65
2021/11/04 11:26:00;;;;;;;27.97;19.30;;;10.10;99.90;;;;;;5052218;28;20171;-65
2021/11/04 11:28:34;;;;;;;26.40;19.17;;;10.10;99.90;;;;;;5051957;28;20186;-65
2021/11/04 11:31:09;;;;;;;30.33;19.80;;;9.90;99.90;;;;;;5052988;28;20198;-66
2021/11/04 11:34:02;;;;;;;35.37;22.73;;;9.70;99.90;;;;;;5053160;28;20209;-65
2021/11/04 11:36:28;;;;;;;43.43;24.87;;;9.60;99.90;;;;;;5029690;28;20187;-66
2021/11/04 11:38:57;;;;;;;34.37;22.37;;;9.70;99.90;;;;;;5052821;28;20186;-66
2021/11/04 11:41:24;;;;;;;32.90;21.93;;;9.90;99.90;;;;;;5052773;28;20193;-65
2021/11/04 11:43:53;;;;;;;34.23;21.73;;;10.00;99.90;;;;;;5053074;28;20218;-66
2021/11/04 11:46:19;;;;;;;28.67;20.90;;;10.10;99.90;;;;;;5053124;28;20221;-65
2021/11/04 11:49:04;;;;;;;32.87;20.80;;;10.10;99.90;;;;;;5052903;28;20175;-66
2021/11/04 11:51:40;;;;;;;39.03;22.03;;;10.20;99.90;;;;;;5052571;28;20211;-65
2021/11/04 11:54:06;;;;;;;34.23;23.10;;;10.50;99.90;;;;;;5032829;28;20576;-65
2021/11/04 11:56:34;;;;;;;32.90;21.07;;;10.60;99.90;;;;;;5033056;28;20171;-66
2021/11/04 11:59:19;;;;;;;33.03;21.83;;;10.80;99.90;;;;;;5046597;28;20665;-65
2021/11/04 12:01:49;;;;;;;26.20;18.77;;;11.00;99.90;;;;;;5052821;28;20178;-65
2021/11/04 12:04:27;;;;;;;34.33;20.27;;;11.40;99.90;;;;;;5052463;28;20229;-65
2021/11/04 12:06:59;;;;;;;28.00;19.13;;;11.80;99.90;;;;;;5052627;28;20171;-66
2021/11/04 12:09:32;;;;;;;25.13;18.40;;;11.90;99.90;;;;;;5032444;28;20691;-65
2021/11/04 12:11:58;;;;;;;27.93;19.87;;;12.00;99.90;;;;;;5032914;28;20597;-65
2021/11/04 12:14:28;;;;;;;28.13;19.73;;;11.90;99.90;;;;;;5032743;28;20259;-66
2021/11/04 12:17:00;;;;;;;27.70;20.53;;;11.70;99.90;;;;;;5031922;28;20204;-65
2021/11/04 12:19:33;;;;;;;22.03;17.83;;;11.60;99.90;;;;;;5051958;28;20179;-66
2021/11/04 12:21:59;;;;;;;29.67;18.80;;;11.50;99.90;;;;;;5051027;28;20171;-65
2021/11/04 12:24:25;;;;;;;23.87;19.30;;;11.30;99.90;;;;;;5050974;28;20185;-65
2021/11/04 12:26:50;;;;;;;25.33;19.17;;;11.20;99.90;;;;;;5052037;28;20232;-65
2021/11/04 12:29:24;;;;;;;25.60;17.97;;;11.10;99.90;;;;;;5051270;28;20218;-66
2021/11/04 12:31:50;;;;;;;26.27;20.30;;;10.90;99.90;;;;;;5052083;28;20232;-65
2021/11/04 12:34:23;;;;;;;24.90;18.93;;;10.70;99.90;;;;;;5052071;28;20547;-66
2021/11/04 12:36:52;;;;;;;28.77;19.53;;;10.50;99.90;;;;;;5051850;28;20274;-66
2021/11/04 12:39:21;;;;;;;26.93;19.60;;;10.40;99.90;;;;;;5051813;28;20543;-66